OSLK1: Labette Creek nr Oswego Ks

                                SHEF ID:       OSLK1     LABETTE C NR OSWEGO, KS
STATION TYPE:
Regulating: Stage = 20.00, Flow = 5533

PRECIP STAGE RIV-FLOW BAT-LOAD
in ft cfs volt
Ccp-Rev Ccp-Rev Ccp-Rev Ccp-Rev
(America/Chicago)
04/11 00:00 ---- 6.81 126 12.39
04/11 01:00 ---- 6.94 153 12.35
04/11 02:00 ---- 7.12 197 12.31
04/11 03:00 ---- 7.34 260 12.28
04/11 04:00 ---- 7.49 310 12.25
04/11 05:00 ---- 7.58 342 12.22
04/11 06:00 ---- 7.65 368 12.21
04/11 07:00 ---- 7.68 380 12.21
04/11 08:00 ---- 7.68 380 12.21
04/11 09:00 ---- 7.67 376 12.31
04/11 10:00 ---- 7.63 361 12.77
04/11 11:00 ---- 7.60 349 13.35
04/11 12:00 ---- 7.56 335 13.28
04/11 13:00 ---- 7.51 317 13.21
04/11 14:00 ---- 7.47 303 13.13
04/11 15:00 ---- 7.43 289 13.03
04/11 16:00 ---- 7.39 276 13.05
04/11 17:00 ---- 7.34 260 13.03
04/11 18:00 ---- 7.29 245 13.01
04/11 19:00 ---- 7.24 230 12.94
04/11 20:00 ---- 7.21 222 12.77
04/11 21:00 ---- 7.18 213 12.57
04/11 22:00 ---- 7.15 205 12.46
04/11 23:00 ---- 7.12 197 12.40
Data processed at Sun 12Apr2026 04:13 GMT

NOTICE: If you are parsing this page

Please convert to using our Data API. Starting early 2026 we will be migrating to: https://water.usace.army.mil with modern pages rendered in JavaScript. When this migration completes you will no longer be able to scrape this page! CWMSDataAPI (CDA)

Timeseries IDs (TSIDs)

TSIDs used from left to right in the data table
OSWE.Precip-Inc.Total.1Hour.1Hour.Ccp-Rev
OSWE.Stage.Inst.1Hour.0.Ccp-Rev
OSWE.Flow.Inst.1Hour.0.Ccp-Rev
OSWE.Volt-Battery Load.Inst.1Hour.0.Ccp-Rev

                            

All information presented herein is the property of the government of the United States of America and may be revised or deleted at any time without prior notice. Dissemination of this information without the expressed written consent of the Public Affairs Office, Tulsa District U.S. Army Corps of Engineers is strictly prohibited. These data are gathered electronically and, as presented, have NOT undergone any form of quality control. These data are NOT guaranteed to be valid or correct.